createdAt,value
2017-08-16T00:00:01.400Z,35.93
2017-08-16T00:02:28.954Z,38.40
2017-08-16T00:04:56.482Z,34.70
2017-08-16T00:07:24.047Z,31.73
2017-08-16T00:09:51.560Z,36.03
2017-08-16T00:12:19.090Z,34.13
2017-08-16T00:14:46.626Z,37.87
2017-08-16T00:17:14.137Z,34.47
2017-08-16T00:19:41.687Z,36.10
2017-08-16T00:22:09.212Z,38.40
2017-08-16T00:24:36.755Z,38.47
2017-08-16T00:27:04.268Z,39.17
2017-08-16T00:29:31.825Z,41.00
2017-08-16T00:31:59.376Z,38.57
2017-08-16T00:34:26.918Z,41.23
2017-08-16T00:36:54.462Z,38.93
2017-08-16T00:39:21.969Z,42.00
2017-08-16T00:41:49.520Z,44.10
2017-08-16T00:44:17.039Z,43.17
2017-08-16T00:46:44.576Z,41.23
2017-08-16T00:49:12.123Z,41.97
2017-08-16T00:51:39.690Z,40.70
2017-08-16T00:54:07.217Z,41.10
2017-08-16T00:56:34.739Z,40.40
2017-08-16T00:59:02.336Z,43.13
2017-08-16T01:01:29.863Z,42.30
2017-08-16T01:03:57.410Z,41.10
2017-08-16T01:06:24.953Z,41.43
2017-08-16T01:08:52.511Z,41.40
2017-08-16T01:11:20.036Z,39.53
2017-08-16T01:13:47.600Z,41.07
2017-08-16T01:16:15.140Z,39.57
2017-08-16T01:18:42.650Z,38.67
2017-08-16T01:21:10.201Z,39.43
2017-08-16T01:23:37.745Z,38.17
2017-08-16T01:26:05.284Z,37.73
2017-08-16T01:28:32.823Z,38.03
2017-08-16T01:31:00.359Z,38.87
2017-08-16T01:33:27.881Z,37.40
2017-08-16T01:35:55.439Z,38.30
2017-08-16T01:38:22.980Z,36.70
2017-08-16T01:40:50.581Z,38.87
2017-08-16T01:43:18.113Z,36.67
2017-08-16T01:45:45.636Z,37.07
2017-08-16T01:48:13.186Z,37.80
2017-08-16T01:50:40.715Z,35.37
2017-08-16T01:53:08.247Z,35.60
2017-08-16T01:55:35.763Z,35.97
2017-08-16T01:58:03.306Z,35.27
2017-08-16T02:00:30.834Z,34.10
2017-08-16T02:02:58.375Z,35.30
2017-08-16T02:05:25.907Z,32.10
2017-08-16T02:07:53.447Z,31.90
2017-08-16T02:10:21.011Z,35.43
2017-08-16T02:12:48.532Z,33.57
2017-08-16T02:15:16.088Z,32.37
2017-08-16T02:17:43.608Z,31.53
2017-08-16T02:20:11.171Z,34.27
2017-08-16T02:22:38.700Z,33.13
2017-08-16T02:25:06.296Z,35.77
2017-08-16T02:27:33.833Z,35.17
2017-08-16T02:30:01.361Z,34.20
2017-08-16T02:32:28.907Z,33.47
2017-08-16T02:34:56.430Z,32.73
2017-08-16T02:37:24.984Z,36.90
2017-08-16T02:39:52.502Z,34.73
2017-08-16T02:42:20.030Z,36.47
2017-08-16T02:44:47.560Z,35.57
2017-08-16T02:47:15.103Z,38.30
2017-08-16T02:49:42.637Z,39.23
2017-08-16T02:52:10.160Z,37.57
2017-08-16T02:54:37.710Z,36.30
2017-08-16T02:57:05.226Z,36.97
2017-08-16T02:59:32.772Z,38.53
2017-08-16T03:02:00.299Z,40.13
2017-08-16T03:04:27.836Z,37.37
2017-08-16T03:06:55.372Z,40.93
2017-08-16T03:09:22.958Z,38.77
2017-08-16T03:11:50.510Z,43.40
2017-08-16T03:14:18.078Z,43.90
2017-08-16T03:16:45.627Z,43.57
2017-08-16T03:19:13.151Z,44.10
2017-08-16T03:21:40.706Z,44.33
2017-08-16T03:24:08.222Z,43.87
2017-08-16T03:26:35.779Z,46.03
2017-08-16T03:29:03.287Z,42.27
2017-08-16T03:31:30.823Z,41.17
2017-08-16T03:33:58.378Z,43.43
2017-08-16T03:36:25.913Z,40.67
2017-08-16T03:38:53.468Z,41.53
2017-08-16T03:41:20.988Z,43.10
2017-08-16T03:43:48.843Z,43.40
2017-08-16T03:46:16.449Z,44.60
2017-08-16T03:48:43.999Z,44.50
2017-08-16T03:51:11.559Z,45.73
2017-08-16T03:53:39.083Z,43.33
2017-08-16T03:56:06.621Z,44.10
2017-08-16T03:58:34.159Z,47.67
2017-08-16T04:01:01.767Z,51.77
2017-08-16T04:03:29.285Z,49.27
2017-08-16T04:05:56.807Z,48.17
2017-08-16T04:08:24.353Z,48.20
2017-08-16T04:10:51.877Z,49.30
2017-08-16T04:13:19.423Z,49.20
2017-08-16T04:15:47.006Z,51.33
2017-08-16T04:18:14.574Z,50.50
2017-08-16T04:20:42.107Z,50.60
2017-08-16T04:23:09.673Z,49.63
2017-08-16T04:25:37.217Z,51.03
2017-08-16T04:28:04.747Z,50.90
2017-08-16T04:30:32.313Z,48.73
2017-08-16T04:32:59.875Z,47.63
2017-08-16T04:35:27.415Z,51.30
2017-08-16T04:37:54.953Z,49.90
2017-08-16T04:40:22.498Z,49.37
2017-08-16T04:42:50.013Z,49.97
2017-08-16T04:45:17.584Z,50.60
2017-08-16T04:47:45.125Z,52.67
2017-08-16T04:50:12.645Z,47.07
2017-08-16T04:52:40.205Z,49.90
2017-08-16T04:55:07.738Z,49.70
2017-08-16T04:57:35.270Z,47.07
2017-08-16T05:00:02.828Z,53.30
2017-08-16T05:02:30.418Z,49.97
2017-08-16T05:04:57.956Z,52.97
2017-08-16T05:07:25.530Z,53.27
2017-08-16T05:09:53.095Z,52.20
2017-08-16T05:12:20.637Z,53.73
2017-08-16T05:14:48.204Z,54.30
2017-08-16T05:17:15.812Z,49.10
2017-08-16T05:19:43.332Z,49.47
2017-08-16T05:22:10.890Z,48.97
2017-08-16T05:24:38.478Z,46.07
2017-08-16T05:27:05.997Z,49.77
2017-08-16T05:29:33.602Z,51.70
2017-08-16T05:32:01.152Z,49.60
2017-08-16T05:34:28.731Z,48.53
2017-08-16T05:36:56.271Z,48.87
2017-08-16T05:39:23.812Z,47.73
2017-08-16T05:41:51.349Z,50.27
2017-08-16T05:44:18.954Z,50.70
2017-08-16T05:46:46.471Z,49.37
2017-08-16T05:49:14.000Z,50.57
2017-08-16T05:51:41.619Z,50.40
2017-08-16T05:54:09.161Z,49.57
2017-08-16T05:56:36.716Z,46.97
2017-08-16T05:59:04.274Z,51.80
2017-08-16T06:01:31.862Z,49.97
2017-08-16T06:03:59.411Z,48.27
2017-08-16T06:06:27.004Z,47.60
2017-08-16T06:08:54.612Z,46.20
2017-08-16T06:11:22.204Z,48.20
2017-08-16T06:13:49.732Z,46.53
2017-08-16T06:16:17.312Z,47.47
2017-08-16T06:18:44.874Z,44.77
2017-08-16T06:21:12.405Z,47.20
2017-08-16T06:23:39.973Z,48.97
2017-08-16T06:26:07.517Z,47.30
2017-08-16T06:28:35.078Z,46.70
2017-08-16T06:31:02.603Z,47.13
2017-08-16T06:33:30.176Z,46.20
2017-08-16T06:35:57.717Z,46.00
2017-08-16T06:38:25.313Z,46.57
2017-08-16T06:40:52.904Z,45.43
2017-08-16T06:43:20.475Z,43.50
2017-08-16T06:45:48.021Z,44.93
2017-08-16T06:48:15.576Z,47.33
2017-08-16T06:50:43.168Z,45.57
2017-08-16T06:53:10.681Z,44.30
2017-08-16T06:55:38.257Z,42.07
2017-08-16T06:58:05.799Z,44.27
2017-08-16T07:00:33.339Z,41.27
2017-08-16T07:03:00.920Z,41.30
2017-08-16T07:05:28.496Z,39.80
2017-08-16T07:07:56.026Z,38.73
2017-08-16T07:10:23.574Z,38.13
2017-08-16T07:12:51.162Z,40.20
2017-08-16T07:15:18.696Z,38.87
2017-08-16T07:17:46.254Z,39.63
2017-08-16T07:20:13.825Z,39.13
2017-08-16T07:22:41.467Z,39.10
2017-08-16T07:25:09.046Z,38.37
2017-08-16T07:27:36.603Z,37.93
2017-08-16T07:30:04.151Z,38.07
2017-08-16T07:32:31.715Z,38.63
2017-08-16T07:34:59.282Z,36.33
2017-08-16T07:37:26.847Z,31.10
2017-08-16T07:39:54.395Z,33.27
2017-08-16T07:42:21.964Z,18.33
2017-08-16T07:44:49.502Z,14.80
2017-08-16T07:47:17.046Z,15.70
2017-08-16T07:49:44.631Z,21.93
2017-08-16T07:52:12.186Z,20.10
2017-08-16T07:54:39.735Z,18.50
2017-08-16T07:57:07.328Z,16.23
2017-08-16T07:59:34.985Z,18.07
2017-08-16T08:02:02.521Z,17.13
2017-08-16T08:04:30.118Z,18.10
2017-08-16T08:06:57.740Z,18.47
2017-08-16T08:09:25.269Z,19.20
2017-08-16T08:11:52.835Z,18.90
2017-08-16T08:14:20.384Z,20.07
2017-08-16T08:16:47.928Z,20.37
2017-08-16T08:19:15.466Z,20.90
2017-08-16T08:21:43.004Z,19.00
2017-08-16T08:24:10.521Z,21.77
2017-08-16T08:26:38.124Z,26.30
2017-08-16T08:29:05.645Z,25.30
2017-08-16T08:31:33.165Z,25.43
2017-08-16T08:34:00.730Z,25.90
2017-08-16T08:36:28.251Z,23.87
2017-08-16T08:38:55.797Z,20.43
2017-08-16T08:41:23.328Z,23.00
2017-08-16T08:43:50.910Z,22.57
2017-08-16T08:46:18.431Z,23.47
2017-08-16T08:48:46.031Z,26.03
2017-08-16T08:51:13.546Z,27.20
2017-08-16T08:53:41.075Z,23.23
2017-08-16T08:56:08.645Z,22.03
2017-08-16T08:58:36.234Z,19.70
2017-08-16T09:01:03.765Z,19.20
2017-08-16T09:03:31.282Z,18.77
2017-08-16T09:05:58.835Z,18.37
2017-08-16T09:08:26.365Z,15.37
2017-08-16T09:10:53.902Z,15.17
2017-08-16T09:13:21.418Z,14.40
2017-08-16T09:15:48.992Z,17.10
2017-08-16T09:18:16.562Z,17.63
2017-08-16T09:20:44.102Z,15.83
2017-08-16T09:23:11.633Z,16.60
2017-08-16T09:25:39.162Z,16.93
2017-08-16T09:28:06.726Z,17.10
2017-08-16T09:30:34.317Z,18.30
2017-08-16T09:33:01.884Z,17.03
2017-08-16T09:35:29.471Z,17.20
2017-08-16T09:37:57.010Z,15.80
2017-08-16T09:40:24.580Z,18.67
2017-08-16T09:42:52.152Z,19.97
2017-08-16T09:45:19.671Z,18.43
2017-08-16T09:47:47.225Z,21.37
2017-08-16T09:50:14.837Z,17.80
2017-08-16T09:52:42.359Z,17.23
2017-08-16T09:55:09.922Z,18.20
2017-08-16T09:57:37.532Z,17.80
2017-08-16T10:00:05.066Z,17.40
2017-08-16T10:02:32.659Z,19.50
2017-08-16T10:05:00.208Z,19.20
2017-08-16T10:07:27.771Z,18.93
2017-08-16T10:09:55.352Z,18.83
2017-08-16T10:12:22.896Z,20.40
2017-08-16T10:14:50.460Z,18.50
2017-08-16T10:17:18.091Z,16.93
2017-08-16T10:19:45.671Z,17.60
2017-08-16T10:22:13.217Z,19.23
2017-08-16T10:24:40.786Z,18.97
2017-08-16T10:27:08.356Z,18.57
2017-08-16T10:29:35.882Z,17.00
2017-08-16T10:32:03.444Z,17.93
2017-08-16T10:34:30.961Z,17.90
2017-08-16T10:36:58.515Z,17.83
2017-08-16T10:39:26.060Z,18.13
2017-08-16T10:41:53.607Z,17.03
2017-08-16T10:44:21.157Z,17.70
2017-08-16T10:46:48.675Z,17.27
2017-08-16T10:49:16.231Z,17.93
2017-08-16T10:51:43.755Z,17.90
2017-08-16T10:54:11.325Z,15.90
2017-08-16T10:56:38.834Z,16.50
2017-08-16T10:59:06.386Z,16.13
2017-08-16T11:01:33.963Z,16.30
2017-08-16T11:04:01.562Z,16.40
2017-08-16T11:06:29.081Z,15.20
2017-08-16T11:08:56.654Z,15.60
2017-08-16T11:11:24.238Z,14.07
2017-08-16T11:13:52.018Z,15.20
2017-08-16T11:16:20.374Z,14.10
2017-08-16T11:18:47.974Z,15.70
2017-08-16T11:21:15.560Z,14.83
2017-08-16T11:23:43.106Z,14.90
2017-08-16T11:26:10.641Z,14.90
2017-08-16T11:28:38.157Z,17.03
2017-08-16T11:31:05.736Z,15.90
2017-08-16T11:33:33.269Z,14.97
2017-08-16T11:36:00.802Z,14.17
2017-08-16T11:38:28.371Z,14.57
2017-08-16T11:40:55.885Z,12.97
2017-08-16T11:43:23.492Z,13.43
2017-08-16T11:45:51.044Z,12.20
2017-08-16T11:48:18.627Z,11.50
2017-08-16T11:50:46.175Z,11.43
2017-08-16T11:53:13.756Z,13.03
2017-08-16T11:55:41.347Z,12.27
2017-08-16T11:58:08.892Z,11.33
2017-08-16T12:00:36.473Z,11.30
2017-08-16T12:03:04.040Z,9.57
2017-08-16T12:05:31.606Z,9.50
2017-08-16T12:07:59.151Z,8.30
2017-08-16T12:10:26.805Z,9.70
2017-08-16T12:12:54.334Z,11.63
2017-08-16T12:15:21.881Z,9.70
2017-08-16T12:17:49.469Z,10.33
2017-08-16T12:20:16.984Z,9.97
2017-08-16T12:22:44.507Z,7.90
2017-08-16T12:25:12.019Z,8.73
2017-08-16T12:27:39.552Z,8.20
2017-08-16T12:30:07.092Z,7.87
2017-08-16T12:32:34.656Z,8.37
2017-08-16T12:35:02.312Z,9.50
2017-08-16T12:37:29.854Z,10.20
2017-08-16T12:39:57.488Z,10.30
2017-08-16T12:42:25.028Z,10.27
2017-08-16T12:44:52.572Z,10.53
2017-08-16T12:47:20.176Z,9.90
2017-08-16T12:49:47.784Z,10.20
2017-08-16T12:52:15.313Z,9.70
2017-08-16T12:54:42.862Z,9.20
2017-08-16T12:57:10.436Z,9.67
2017-08-16T12:59:37.982Z,9.10
2017-08-16T13:02:05.551Z,10.03
2017-08-16T13:04:33.115Z,9.53
2017-08-16T13:07:00.676Z,8.83
2017-08-16T13:09:28.316Z,9.17
2017-08-16T13:11:55.895Z,9.00
2017-08-16T13:14:23.492Z,9.90
2017-08-16T13:16:51.047Z,9.43
2017-08-16T13:19:18.581Z,9.20
2017-08-16T13:21:46.176Z,9.00
2017-08-16T13:24:13.749Z,10.10
2017-08-16T13:26:41.278Z,10.00
2017-08-16T13:29:08.847Z,9.17
2017-08-16T13:31:39.287Z,8.73
2017-08-16T13:34:06.851Z,8.73
2017-08-16T13:36:34.399Z,9.10
2017-08-16T13:39:01.964Z,9.00
2017-08-16T13:41:29.544Z,8.27
2017-08-16T13:43:57.134Z,8.93
2017-08-16T13:46:24.668Z,9.23
2017-08-16T13:48:52.274Z,8.70
2017-08-16T13:51:19.806Z,8.63
2017-08-16T13:53:47.350Z,8.90
2017-08-16T13:56:14.897Z,9.00
2017-08-16T13:58:42.450Z,8.80
2017-08-16T14:01:09.997Z,9.87
2017-08-16T14:03:37.543Z,9.17
2017-08-16T14:06:05.094Z,10.10
2017-08-16T14:08:32.634Z,8.93
2017-08-16T14:11:00.215Z,8.00
2017-08-16T14:13:27.763Z,8.57
2017-08-16T14:15:55.364Z,13.03
2017-08-16T14:18:22.914Z,8.63
2017-08-16T14:20:50.501Z,8.40
2017-08-16T14:23:18.062Z,9.20
2017-08-16T14:25:45.589Z,8.60
2017-08-16T14:28:13.128Z,8.17
2017-08-16T14:30:40.676Z,9.57
2017-08-16T14:33:08.217Z,11.57
2017-08-16T14:35:35.798Z,10.27
2017-08-16T14:38:03.352Z,10.20
2017-08-16T14:40:30.882Z,10.90
2017-08-16T14:42:58.450Z,10.30
2017-08-16T14:45:25.994Z,10.00
2017-08-16T14:47:53.527Z,10.30
2017-08-16T14:50:21.121Z,10.53
2017-08-16T14:52:48.659Z,10.47
2017-08-16T14:55:16.364Z,10.00
2017-08-16T14:57:43.887Z,8.67
2017-08-16T15:00:11.476Z,11.13
2017-08-16T15:02:39.082Z,10.33
2017-08-16T15:05:06.629Z,9.33
2017-08-16T15:07:34.195Z,9.47
2017-08-16T15:10:01.779Z,10.03
2017-08-16T15:12:29.327Z,9.33
2017-08-16T15:14:56.886Z,10.03
2017-08-16T15:17:24.447Z,10.13
2017-08-16T15:19:52.055Z,9.77
2017-08-16T15:22:19.669Z,8.70
2017-08-16T15:24:47.285Z,9.77
2017-08-16T15:27:14.873Z,9.37
2017-08-16T15:29:42.440Z,8.93
2017-08-16T15:32:10.064Z,9.50
2017-08-16T15:34:37.579Z,9.43
2017-08-16T15:37:05.133Z,9.20
2017-08-16T15:39:32.677Z,9.40
2017-08-16T15:42:00.200Z,9.13
2017-08-16T15:44:27.745Z,13.27
2017-08-16T15:46:55.282Z,10.30
2017-08-16T15:49:22.853Z,10.53
2017-08-16T15:51:51.383Z,9.90
2017-08-16T15:54:18.965Z,11.40
2017-08-16T15:56:46.484Z,9.37
2017-08-16T15:59:14.499Z,9.67
2017-08-16T16:01:42.089Z,9.00
2017-08-16T16:04:09.654Z,10.13
2017-08-16T16:06:37.221Z,12.40
2017-08-16T16:09:05.779Z,10.73
2017-08-16T16:11:33.359Z,11.20
2017-08-16T16:14:00.941Z,9.17
2017-08-16T16:16:28.544Z,11.00
2017-08-16T16:18:56.123Z,11.17
2017-08-16T16:21:23.709Z,12.40
2017-08-16T16:23:51.273Z,11.60
2017-08-16T16:26:18.893Z,10.10
2017-08-16T16:28:46.444Z,11.20
2017-08-16T16:31:14.007Z,10.20
2017-08-16T16:33:41.545Z,9.70
2017-08-16T16:36:09.093Z,11.90
2017-08-16T16:38:36.671Z,11.07
2017-08-16T16:41:04.238Z,12.67
2017-08-16T16:43:31.832Z,10.33
2017-08-16T16:45:59.395Z,10.73
2017-08-16T16:48:26.946Z,9.97
2017-08-16T16:50:54.478Z,10.00
2017-08-16T16:53:22.086Z,9.37
2017-08-16T16:55:49.616Z,9.47
2017-08-16T16:58:17.177Z,9.40
2017-08-16T17:00:44.725Z,8.67
2017-08-16T17:03:12.235Z,8.60
2017-08-16T17:05:39.826Z,8.10
2017-08-16T17:08:07.491Z,8.77
2017-08-16T17:10:36.242Z,9.27
2017-08-16T17:13:03.783Z,8.90
2017-08-16T17:15:31.375Z,8.63
2017-08-16T17:17:58.898Z,8.50
2017-08-16T17:20:27.559Z,10.83
2017-08-16T17:22:55.135Z,9.20
2017-08-16T17:25:22.677Z,9.83
2017-08-16T17:27:50.233Z,9.17
2017-08-16T17:30:17.761Z,8.97
2017-08-16T17:32:45.343Z,9.37
2017-08-16T17:35:12.867Z,8.67
2017-08-16T17:37:40.406Z,9.13
2017-08-16T17:40:07.933Z,8.70
2017-08-16T17:42:35.491Z,9.27
2017-08-16T17:45:03.084Z,8.87
2017-08-16T17:47:30.635Z,9.13
2017-08-16T17:49:58.200Z,9.93
2017-08-16T17:52:25.799Z,9.13
2017-08-16T17:54:53.374Z,9.80
2017-08-16T17:57:20.899Z,8.73
2017-08-16T17:59:48.503Z,10.50
2017-08-16T18:02:16.056Z,10.40
2017-08-16T18:04:43.599Z,10.10
2017-08-16T18:07:11.196Z,10.87
2017-08-16T18:09:38.779Z,10.13
2017-08-16T18:12:06.346Z,11.13
2017-08-16T18:14:33.954Z,10.83
2017-08-16T18:17:01.581Z,10.63
2017-08-16T18:19:29.111Z,10.40
2017-08-16T18:21:56.674Z,9.37
2017-08-16T18:24:24.247Z,8.80
2017-08-16T18:26:51.808Z,10.77
2017-08-16T18:29:19.397Z,10.33
2017-08-16T18:31:46.937Z,9.83
2017-08-16T18:34:14.480Z,9.60
2017-08-16T18:36:42.056Z,10.33
2017-08-16T18:39:09.575Z,10.10
2017-08-16T18:41:37.119Z,10.30
2017-08-16T18:44:04.686Z,10.33
2017-08-16T18:46:32.210Z,10.00
2017-08-16T18:48:59.798Z,10.10
2017-08-16T18:51:27.346Z,11.43
2017-08-16T18:53:54.920Z,10.40
2017-08-16T18:56:22.470Z,10.00
2017-08-16T18:58:50.063Z,10.40
2017-08-16T19:01:17.573Z,10.40
2017-08-16T19:03:45.126Z,10.80
2017-08-16T19:06:12.684Z,11.00
2017-08-16T19:08:40.271Z,10.70
2017-08-16T19:11:15.828Z,10.90
2017-08-16T19:13:43.429Z,10.27
2017-08-16T19:16:11.052Z,10.63
2017-08-16T19:18:38.679Z,10.53
2017-08-16T19:21:06.324Z,11.03
2017-08-16T19:23:33.939Z,9.30
2017-08-16T19:26:01.583Z,10.20
2017-08-16T19:28:29.219Z,10.10
2017-08-16T19:30:56.804Z,10.10
2017-08-16T19:33:24.367Z,10.20
2017-08-16T19:35:51.957Z,11.87
2017-08-16T19:38:19.520Z,10.17
2017-08-16T19:40:47.147Z,10.70
2017-08-16T19:43:14.774Z,9.43
2017-08-16T19:45:42.343Z,9.90
2017-08-16T19:48:09.957Z,10.37
2017-08-16T19:50:37.614Z,9.80
2017-08-16T19:53:05.304Z,9.07
2017-08-16T19:55:32.933Z,10.30
2017-08-16T19:58:00.546Z,9.50
2017-08-16T20:00:28.175Z,9.60
2017-08-16T20:02:55.907Z,10.17
2017-08-16T20:05:23.543Z,10.20
2017-08-16T20:07:51.224Z,10.03
2017-08-16T20:10:18.865Z,9.63
2017-08-16T20:12:46.419Z,9.47
2017-08-16T20:15:14.072Z,10.53
2017-08-16T20:17:41.794Z,10.53
2017-08-16T20:20:09.411Z,10.23
2017-08-16T20:22:37.039Z,10.30
2017-08-16T20:25:04.700Z,10.53
2017-08-16T20:27:32.288Z,10.40
2017-08-16T20:30:00.137Z,10.90
2017-08-16T20:32:28.742Z,11.17
2017-08-16T20:34:56.352Z,10.70
2017-08-16T20:37:24.013Z,9.57
2017-08-16T20:39:51.615Z,10.70
2017-08-16T20:42:19.247Z,10.83
2017-08-16T20:44:46.819Z,9.90
2017-08-16T20:47:14.423Z,10.70
2017-08-16T20:49:42.093Z,10.50
2017-08-16T20:52:09.748Z,9.50
2017-08-16T20:54:37.600Z,9.20
2017-08-16T20:57:05.426Z,10.20
2017-08-16T20:59:33.196Z,9.87
2017-08-16T21:02:00.863Z,9.03
2017-08-16T21:04:28.566Z,9.67
2017-08-16T21:06:56.227Z,9.73
2017-08-16T21:09:24.825Z,9.20
2017-08-16T21:11:52.584Z,10.23
2017-08-16T21:14:20.268Z,10.13
2017-08-16T21:17:02.796Z,9.60
2017-08-16T21:19:30.506Z,10.63
2017-08-16T21:21:58.231Z,9.47
2017-08-16T21:24:25.778Z,9.50
2017-08-16T21:26:53.358Z,9.20
2017-08-16T21:29:20.913Z,9.20
2017-08-16T21:31:48.475Z,9.83
2017-08-16T21:34:16.084Z,10.03
2017-08-16T21:36:43.702Z,10.43
2017-08-16T21:39:11.307Z,9.00
2017-08-16T21:41:38.904Z,10.20
2017-08-16T21:44:06.496Z,9.20
2017-08-16T21:46:34.319Z,9.07
2017-08-16T21:49:01.887Z,9.90
2017-08-16T21:51:29.526Z,9.13
2017-08-16T21:53:57.167Z,10.43
2017-08-16T21:56:24.810Z,10.67
2017-08-16T21:58:52.419Z,10.10
2017-08-16T22:01:20.027Z,11.37
2017-08-16T22:03:47.630Z,10.87
2017-08-16T22:06:15.205Z,10.40
2017-08-16T22:08:42.827Z,10.80
2017-08-16T22:11:10.545Z,11.67
2017-08-16T22:13:38.151Z,11.83
2017-08-16T22:16:05.752Z,10.97
2017-08-16T22:18:33.475Z,11.67
2017-08-16T22:21:01.099Z,12.10
2017-08-16T22:23:28.720Z,11.07
2017-08-16T22:25:56.356Z,11.50
2017-08-16T22:28:23.994Z,12.00
2017-08-16T22:30:51.594Z,11.70
2017-08-16T22:33:19.241Z,12.60
2017-08-16T22:35:46.857Z,12.53
2017-08-16T22:38:14.500Z,11.00
2017-08-16T22:40:42.095Z,11.30
2017-08-16T22:43:09.747Z,11.27
2017-08-16T22:45:37.379Z,11.77
2017-08-16T22:48:04.944Z,11.97
2017-08-16T22:50:32.747Z,12.50
2017-08-16T22:53:00.339Z,11.80
2017-08-16T22:55:27.956Z,12.27
2017-08-16T22:57:55.581Z,12.47
2017-08-16T23:00:23.250Z,11.17
2017-08-16T23:02:50.865Z,12.23
2017-08-16T23:05:18.570Z,13.10
2017-08-16T23:07:46.211Z,12.43
2017-08-16T23:10:13.891Z,12.57
2017-08-16T23:12:41.476Z,12.73
2017-08-16T23:15:09.061Z,11.73
2017-08-16T23:17:36.690Z,11.30
2017-08-16T23:20:04.290Z,12.33
2017-08-16T23:22:31.981Z,11.47
2017-08-16T23:24:59.569Z,12.53
2017-08-16T23:27:27.162Z,12.07
2017-08-16T23:29:54.779Z,11.37
2017-08-16T23:32:22.400Z,11.00
2017-08-16T23:34:50.009Z,10.50
2017-08-16T23:37:17.636Z,11.53
2017-08-16T23:39:45.401Z,10.90
2017-08-16T23:42:12.959Z,11.23
2017-08-16T23:44:40.621Z,10.90
2017-08-16T23:47:08.232Z,10.77
2017-08-16T23:49:35.902Z,10.93
2017-08-16T23:52:03.562Z,9.43
2017-08-16T23:54:31.195Z,11.13
2017-08-16T23:56:58.783Z,11.00
2017-08-16T23:59:26.366Z,10.50
